Time;durP1;ratioP1;P1;durP2;ratioP2;P2;SDS_P1;SDS_P2;PMS_P1;PMS_P2;Temp;Humidity;BMP_temperature;BMP_pressure;BME280_temperature;BME280_humidity;BME280_pressure;Samples;Min_cycle;Max_cycle;Signal;HPM_P1;HPM_P2
2023/01/11 00:02:40;;;;;;;8.00;5.30;;;;;;;17.19;60.20;96874.50;10371989;28;20040;-27
2023/01/11 00:07:40;;;;;;;7.53;5.13;;;;;;;17.13;60.77;96887.94;10363742;28;20285;-27
2023/01/11 00:12:40;;;;;;;8.13;5.67;;;;;;;17.08;60.78;96879.47;10363992;28;20088;-27
2023/01/11 00:17:41;;;;;;;7.90;5.67;;;;;;;17.08;60.74;96878.63;10357582;28;20305;-27
2023/01/11 00:22:41;;;;;;;10.47;5.30;;;;;;;17.08;60.55;96878.63;10355998;28;20319;-27
2023/01/11 00:27:41;;;;;;;7.83;5.90;;;;;;;17.07;60.83;96877.78;10365403;28;20029;-26
2023/01/11 00:32:42;;;;;;;8.57;5.93;;;;;;;17.04;60.71;96874.38;10370727;28;20060;-26
2023/01/11 00:37:42;;;;;;;9.45;4.95;;;;;;;17.06;60.63;96871.03;10375043;28;20030;-27
2023/01/11 00:48:05;;;;;;;6.70;5.07;;;;;;;17.03;60.87;96850.78;10373944;28;20035;-26
2023/01/11 00:53:07;;;;;;;12.05;5.47;;;;;;;17.02;60.80;96826.31;10370918;28;20035;-27
2023/01/11 00:58:08;;;;;;;7.55;4.50;;;;;;;17.05;60.81;96812.81;10369417;28;20034;-27
2023/01/11 01:03:08;;;;;;;9.10;5.20;;;;;;;17.03;60.53;96810.31;10387378;28;20414;-27
2023/01/11 01:08:08;;;;;;;7.30;5.10;;;;;;;17.11;60.46;96802.75;10381325;28;20292;-26
2023/01/11 01:18:30;;;;;;;8.23;5.32;;;;;;;17.15;60.65;96804.50;10346130;28;20049;-27
2023/01/11 01:23:31;;;;;;;6.43;4.53;;;;;;;17.08;60.57;96798.53;10371336;28;20030;-27
2023/01/11 01:28:32;;;;;;;8.97;4.93;;;;;;;17.03;60.62;96789.22;10371988;28;20297;-27
2023/01/11 01:33:32;;;;;;;6.80;4.47;;;;;;;17.07;60.40;96801.06;10373322;28;20398;-28
2023/01/11 01:38:32;;;;;;;6.97;4.90;;;;;;;17.05;61.24;96802.72;10369679;28;20033;-27
2023/01/11 01:44:00;;;;;;;7.63;4.93;;;;;;;17.03;60.64;96794.28;10375419;28;20038;-27
2023/01/11 01:49:08;;;;;;;5.72;3.80;;;;;;;17.04;60.82;96791.75;10364690;28;20034;-26
2023/01/11 01:54:13;;;;;;;6.95;4.65;;;;;;;17.03;60.44;96784.16;10378241;28;20100;-26
2023/01/11 01:59:16;;;;;;;5.80;4.18;;;;;;;17.04;60.98;96790.91;10382546;28;20088;-26
2023/01/11 02:04:26;;;;;;;8.55;4.35;;;;;;;17.02;60.71;96785.84;10368780;28;20038;-27
2023/01/11 02:10:06;;;;;;;5.43;3.63;;;;;;;17.03;60.91;96784.16;10368080;28;20516;-27
2023/01/11 02:15:09;;;;;;;7.30;4.38;;;;;;;17.03;60.87;96784.16;10362542;28;20050;-27
2023/01/11 02:20:16;;;;;;;5.60;4.05;;;;;;;17.10;60.31;96790.94;10378911;28;20407;-27
2023/01/11 02:25:29;;;;;;;5.65;4.28;;;;;;;17.10;60.39;96780.84;10359221;28;20030;-28
2023/01/11 02:30:37;;;;;;;6.43;4.05;;;;;;;17.11;60.39;96780.00;10376047;28;20573;-26
2023/01/11 02:36:27;;;;;;;6.32;4.72;;;;;;;17.05;60.62;96774.88;10366047;28;20045;-27
2023/01/11 02:47:25;;;;;;;5.55;3.90;;;;;;;17.02;60.45;96768.16;10365476;28;20033;-27
2023/01/11 02:52:42;;;;;;;4.93;3.75;;;;;;;17.00;60.77;96759.69;10384438;28;20036;-28
2023/01/11 02:57:44;;;;;;;6.22;3.35;;;;;;;17.01;60.49;96751.28;10360592;28;20418;-27
2023/01/11 03:02:44;;;;;;;5.72;4.03;;;;;;;17.00;60.93;96753.81;10374000;28;20041;-27
2023/01/11 03:07:45;;;;;;;6.07;3.70;;;;;;;17.00;60.70;96751.28;10374500;28;20393;-27
2023/01/11 03:12:54;;;;;;;6.60;3.60;;;;;;;17.00;60.69;96731.03;10364042;28;20038;-27
2023/01/11 03:18:22;;;;;;;5.57;3.90;;;;;;;17.00;60.79;96738.63;10366189;28;20157;-27
2023/01/11 03:23:47;;;;;;;5.68;3.50;;;;;;;16.97;60.65;96734.38;10379051;28;20520;-27
2023/01/11 03:29:02;;;;;;;4.90;4.00;;;;;;;17.01;60.64;96737.78;10372739;28;20033;-27
2023/01/11 03:34:05;;;;;;;5.18;3.53;;;;;;;17.08;60.49;96729.41;10358728;28;20093;-27
2023/01/11 03:39:24;;;;;;;4.72;3.33;;;;;;;17.09;60.38;96726.84;10364868;28;20506;-27
2023/01/11 03:44:27;;;;;;;4.65;3.05;;;;;;;17.07;60.34;96735.28;10363094;28;20053;-27
2023/01/11 03:49:58;;;;;;;4.85;3.40;;;;;;;17.04;60.47;96736.13;10359261;28;20121;-26
2023/01/11 03:55:02;;;;;;;6.00;4.38;;;;;;;17.03;60.52;96738.63;10351781;28;20421;-27
2023/01/11 04:00:05;;;;;;;5.38;3.80;;;;;;;17.01;60.67;96735.25;10372986;28;20041;-27
2023/01/11 04:05:08;;;;;;;7.03;3.05;;;;;;;16.98;60.69;96733.53;10367120;28;20041;-27
2023/01/11 04:10:09;;;;;;;5.80;3.85;;;;;;;16.97;60.44;96731.00;10376693;28;20049;-26
2023/01/11 04:15:09;;;;;;;4.95;3.20;;;;;;;17.00;60.49;96728.50;10380981;28;20144;-26
2023/01/11 04:20:11;;;;;;;5.03;3.25;;;;;;;16.99;60.75;96736.94;10370429;28;20124;-27
2023/01/11 04:25:11;;;;;;;4.45;3.30;;;;;;;16.98;60.88;96736.06;10381415;28;20034;-27
2023/01/11 04:30:12;;;;;;;5.07;3.30;;;;;;;17.00;60.77;96748.75;10360625;28;20034;-26
2023/01/11 04:35:12;;;;;;;6.78;3.33;;;;;;;16.97;60.83;96749.56;10371491;28;20045;-26
2023/01/11 04:40:13;;;;;;;3.25;2.58;;;;;;;16.99;60.48;96745.34;10358087;28;20042;-27
2023/01/11 04:45:13;;;;;;;5.50;2.90;;;;;;;17.05;60.66;96736.94;10388864;28;20026;-27
2023/01/11 04:50:14;;;;;;;5.00;2.80;;;;;;;17.06;59.96;96733.63;10366864;28;20103;-27
2023/01/11 04:55:14;;;;;;;5.50;3.07;;;;;;;17.10;60.21;96733.63;10329832;28;20163;-28
2023/01/11 05:00:15;;;;;;;4.05;2.65;;;;;;;17.13;60.23;96730.25;10346154;28;20276;-27
2023/01/11 05:05:15;;;;;;;5.40;2.40;;;;;;;17.15;60.07;96723.53;10335895;28;20030;-28
2023/01/11 05:10:16;;;;;;;4.15;3.08;;;;;;;17.13;60.34;96717.59;10339692;28;20046;-28
2023/01/11 05:15:16;;;;;;;6.38;2.63;;;;;;;17.15;60.18;96723.53;10338822;28;20030;-27
2023/01/11 05:20:17;;;;;;;4.63;3.30;;;;;;;17.19;60.37;96717.66;10334090;28;20046;-28
2023/01/11 05:25:17;;;;;;;4.17;2.93;;;;;;;17.16;60.17;96715.09;10334855;28;20522;-27
2023/01/11 05:30:18;;;;;;;4.17;2.87;;;;;;;17.18;60.31;96713.44;10336273;28;20505;-26
2023/01/11 05:35:18;;;;;;;4.07;3.05;;;;;;;17.09;60.40;96705.78;10336796;28;20300;-25
2023/01/11 05:40:18;;;;;;;3.37;2.50;;;;;;;17.13;60.50;96710.00;10344256;28;20052;-28
2023/01/11 05:45:28;;;;;;;4.35;2.72;;;;;;;17.14;59.98;96694.03;10341211;28;20055;-27
2023/01/11 05:50:28;;;;;;;4.30;2.70;;;;;;;17.18;60.48;96699.09;10338118;28;20025;-26
2023/01/11 05:55:29;;;;;;;4.10;3.07;;;;;;;17.22;60.40;96689.81;10358313;28;20034;-27
2023/01/11 06:00:29;;;;;;;4.30;2.10;;;;;;;17.23;60.30;96691.53;10374837;28;20283;-27
2023/01/11 06:05:32;;;;;;;4.70;2.70;;;;;;;17.21;59.98;96681.41;10394428;28;20021;-27
2023/01/11 06:10:33;;;;;;;3.40;2.60;;;;;;;17.15;59.89;96672.94;10375692;28;20812;-27
2023/01/11 06:15:34;;;;;;;3.72;2.42;;;;;;;17.18;59.84;96670.41;10374260;28;20030;-27
2023/01/11 06:20:35;;;;;;;7.47;3.22;;;;;;;17.14;60.91;96663.66;10371090;28;20179;-27
2023/01/11 06:25:36;;;;;;;4.43;2.15;;;;;;;17.13;60.81;96654.38;10363239;28;20164;-26
2023/01/11 06:30:37;;;;;;;9.35;2.85;;;;;;;17.15;60.83;96647.66;10363995;28;20036;-27
2023/01/11 06:35:39;;;;;;;10.38;4.95;;;;;;;17.06;61.02;96627.38;10367740;28;20045;-26
2023/01/11 06:40:41;;;;;;;5.93;3.90;;;;;;;16.91;61.29;96610.44;10373302;28;20541;-27
2023/01/11 06:45:42;;;;;;;12.98;4.10;;;;;;;16.99;61.34;96629.03;10378845;28;20033;-27
2023/01/11 06:50:46;;;;;;;7.72;3.85;;;;;;;16.99;61.59;96620.59;10362543;28;20038;-28
2023/01/11 06:55:51;;;;;;;7.60;3.65;;;;;;;16.98;61.46;96623.97;10374661;28;20034;-26
2023/01/11 07:00:53;;;;;;;8.65;3.15;;;;;;;16.95;61.54;96613.81;10370427;28;20033;-28
2023/01/11 07:05:55;;;;;;;7.45;3.42;;;;;;;17.05;61.02;96605.44;10375274;28;20101;-26
2023/01/11 07:10:56;;;;;;;7.45;3.25;;;;;;;17.09;60.81;96618.09;10384785;28;20057;-27
2023/01/11 07:15:56;;;;;;;9.70;3.40;;;;;;;17.10;60.92;96608.84;10372423;28;20042;-27
2023/01/11 07:20:57;;;;;;;5.28;2.72;;;;;;;17.03;61.38;96618.09;10356779;28;20725;-27
2023/01/11 07:25:57;;;;;;;7.07;3.37;;;;;;;16.98;61.44;96614.69;10379793;28;20059;-27
2023/01/11 07:30:57;;;;;;;6.43;2.83;;;;;;;16.96;61.41;96621.44;10372332;28;20117;-27
2023/01/11 07:35:59;;;;;;;4.93;3.20;;;;;;;16.95;61.42;96621.41;10366024;28;21012;-28
2023/01/11 07:40:59;;;;;;;5.00;2.85;;;;;;;16.90;61.53;96610.44;10362443;28;20505;-27
2023/01/11 07:46:20;;;;;;;4.97;2.70;;;;;;;16.93;61.32;96620.56;10362679;28;20807;-27
2023/01/11 07:51:23;;;;;;;6.47;2.73;;;;;;;16.89;61.54;96614.66;10379765;28;20034;-27
2023/01/11 07:56:23;;;;;;;3.85;2.65;;;;;;;16.90;61.51;96613.81;10370811;28;20038;-27
2023/01/11 08:01:24;;;;;;;6.97;2.80;;;;;;;16.89;61.60;96608.75;10366186;28;20046;-27
2023/01/11 08:06:24;;;;;;;3.75;2.53;;;;;;;16.89;61.57;96609.59;10366089;28;20049;-28
2023/01/11 08:16:44;;;;;;;4.15;2.55;;;;;;;16.91;61.45;96619.72;10358964;28;20033;-27
2023/01/11 08:21:44;;;;;;;4.37;2.37;;;;;;;16.98;61.60;96618.91;10358845;28;20038;-26
2023/01/11 08:26:44;;;;;;;4.60;2.53;;;;;;;17.02;61.23;96610.50;10363074;28;20029;-27
2023/01/11 08:31:48;;;;;;;4.53;2.50;;;;;;;16.97;61.70;96607.09;10357399;28;20026;-28
2023/01/11 08:36:48;;;;;;;5.32;2.50;;;;;;;16.92;61.46;96606.25;10359133;28;20300;-26
2023/01/11 08:41:49;;;;;;;4.30;2.70;;;;;;;16.90;61.69;96603.69;10374141;28;20030;-28
2023/01/11 08:46:49;;;;;;;6.10;2.90;;;;;;;16.80;61.43;96585.94;10378120;28;20310;-26
2023/01/11 08:51:50;;;;;;;3.65;2.05;;;;;;;16.88;61.82;96602.00;10363410;28;20072;-27
2023/01/11 08:56:51;;;;;;;3.30;2.35;;;;;;;16.86;61.68;96613.78;10369197;28;20080;-27
2023/01/11 09:01:51;;;;;;;3.47;2.67;;;;;;;16.84;61.58;96623.88;10373218;28;20588;-27
2023/01/11 09:06:52;;;;;;;5.13;2.27;;;;;;;16.86;61.63;96632.34;10373597;28;20291;-27
2023/01/11 09:11:53;;;;;;;3.97;2.40;;;;;;;16.83;61.45;96639.06;10375884;28;20037;-26
2023/01/11 09:16:55;;;;;;;2.63;2.22;;;;;;;16.83;61.55;96634.00;10366347;28;20053;-27
2023/01/11 09:21:56;;;;;;;2.78;2.17;;;;;;;16.82;61.76;96638.22;10368746;28;20117;-27
2023/01/11 09:26:58;;;;;;;3.22;2.28;;;;;;;16.84;61.50;96641.59;10378035;28;20105;-29
2023/01/11 09:31:58;;;;;;;3.45;2.60;;;;;;;16.91;61.69;96633.19;10368722;28;20053;-27
2023/01/11 09:37:02;;;;;;;2.53;1.90;;;;;;;16.96;61.09;96639.13;10369310;28;20119;-27
2023/01/11 09:42:31;;;;;;;3.90;2.40;;;;;;;16.96;61.45;96631.53;10380194;28;20296;-26
2023/01/11 09:47:35;;;;;;;6.72;2.00;;;;;;;16.91;61.51;96632.38;10370269;28;20037;-26
2023/01/11 09:52:40;;;;;;;3.38;2.05;;;;;;;16.87;61.33;96626.44;10376445;28;20181;-28
2023/01/11 09:57:53;;;;;;;3.28;2.28;;;;;;;16.89;61.40;96639.09;10370650;28;20068;-26
2023/01/11 10:03:12;;;;;;;2.70;2.17;;;;;;;16.88;61.43;96629.81;10372128;28;20029;-27
2023/01/11 10:08:40;;;;;;;2.55;2.00;;;;;;;16.87;61.47;96618.88;10363013;28;20034;-32
2023/01/11 10:14:09;;;;;;;2.95;1.98;;;;;;;16.87;61.38;96620.53;10373097;28;20029;-27
2023/01/11 10:19:18;;;;;;;3.28;2.10;;;;;;;16.85;61.58;96619.69;10367595;28;20045;-27
2023/01/11 10:24:27;;;;;;;2.63;2.10;;;;;;;16.85;61.83;96627.28;10379895;28;20037;-26
2023/01/11 10:30:05;;;;;;;2.83;1.77;;;;;;;16.85;61.60;96614.63;10359800;28;20033;-27
2023/01/11 10:35:28;;;;;;;2.10;1.80;;;;;;;16.82;61.60;96607.88;10357745;28;20035;-26
2023/01/11 10:41:01;;;;;;;2.60;1.90;;;;;;;16.81;61.52;96605.34;10344770;28;20042;-27
2023/01/11 10:46:25;;;;;;;1.95;1.67;;;;;;;16.92;61.34;96622.25;10367687;28;20033;-26
2023/01/11 10:51:36;;;;;;;2.40;1.77;;;;;;;16.94;61.16;96607.94;10371265;28;20053;-27
2023/01/11 10:56:58;;;;;;;2.85;1.90;;;;;;;16.91;61.62;96619.72;10354934;28;21480;-26
2023/01/11 11:02:27;;;;;;;2.97;1.73;;;;;;;16.96;60.98;96606.25;10363430;28;20045;-27
2023/01/11 11:07:43;;;;;;;2.47;1.50;;;;;;;16.97;60.81;96591.91;10353103;28;20042;-26
2023/01/11 11:12:52;;;;;;;2.50;1.70;;;;;;;16.98;61.01;96603.75;10386000;28;20030;-27
2023/01/11 11:17:53;;;;;;;2.38;1.38;;;;;;;17.00;60.53;96607.13;10361658;28;20524;-27
2023/01/11 11:22:55;;;;;;;4.05;2.08;;;;;;;17.04;60.44;96603.75;10365760;28;20044;-27
2023/01/11 11:28:22;;;;;;;3.10;1.80;;;;;;;17.09;60.42;96591.97;10379737;28;20037;-27
2023/01/11 11:33:45;;;;;;;7.82;2.67;;;;;;;17.06;60.91;96609.69;10358681;28;20543;-27
2023/01/11 11:39:17;;;;;;;4.38;1.90;;;;;;;17.16;59.91;96593.69;10363427;28;20037;-26
2023/01/11 11:44:24;;;;;;;7.32;2.30;;;;;;;17.19;59.88;96591.16;10364928;28;20413;-27
2023/01/11 11:49:25;;;;;;;5.15;2.20;;;;;;;17.18;59.91;96602.97;10347301;28;20104;-27
2023/01/11 11:54:30;;;;;;;7.72;2.53;;;;;;;17.20;60.00;96601.28;10360785;28;20502;-27
2023/01/11 11:59:32;;;;;;;8.25;2.55;;;;;;;17.23;60.21;96597.94;10367004;28;20502;-26
2023/01/11 12:04:46;;;;;;;8.25;2.70;;;;;;;17.16;60.38;96579.34;10365353;28;20473;-26
2023/01/11 12:09:57;;;;;;;8.35;4.57;;;;;;;17.23;59.77;96596.22;10367423;28;20041;-27
2023/01/11 12:15:07;;;;;;;4.97;3.70;;;;;;;17.20;60.60;96582.72;10369158;28;20041;-26
2023/01/11 12:20:31;;;;;;;4.10;2.50;;;;;;;17.15;60.81;96575.13;10360311;28;20041;-28
2023/01/11 12:25:44;;;;;;;4.22;2.65;;;;;;;17.15;60.52;96587.75;10374419;28;20030;-28
2023/01/11 12:31:17;;;;;;;3.83;2.40;;;;;;;17.13;60.41;96578.47;10374227;28;20069;-26
2023/01/11 12:36:46;;;;;;;3.22;2.30;;;;;;;17.13;60.91;96586.94;10379849;28;20132;-27
2023/01/11 12:41:57;;;;;;;3.60;2.38;;;;;;;17.13;61.10;96596.19;10366903;28;20026;-27
2023/01/11 12:47:16;;;;;;;4.45;2.13;;;;;;;17.11;60.85;96598.72;10371861;28;20053;-27
2023/01/11 12:52:44;;;;;;;3.88;2.00;;;;;;;17.08;61.03;96591.13;10382984;28;20041;-26
2023/01/11 12:58:10;;;;;;;5.88;2.10;;;;;;;17.10;60.52;96583.53;10383829;28;20113;-27
2023/01/11 13:03:52;;;;;;;8.40;2.30;;;;;;;17.10;61.64;96583.53;10375531;28;20037;-27
2023/01/11 13:09:07;;;;;;;9.63;2.90;;;;;;;17.15;61.00;96587.75;10322278;28;20042;-27
2023/01/11 13:14:30;;;;;;;6.63;1.95;;;;;;;17.15;61.06;96581.88;10371189;28;20049;-26
2023/01/11 13:19:55;;;;;;;5.50;1.88;;;;;;;17.16;60.83;96581.03;10357609;28;20489;-27
2023/01/11 13:25:00;;;;;;;5.28;1.77;;;;;;;17.20;60.70;96600.44;10366126;28;20489;-27
2023/01/11 13:30:02;;;;;;;4.38;1.77;;;;;;;17.19;60.42;96592.00;10374000;28;20604;-27
2023/01/11 13:35:12;;;;;;;5.50;2.20;;;;;;;17.22;60.82;96609.72;10351671;28;20038;-27
2023/01/11 13:40:30;;;;;;;6.10;2.08;;;;;;;17.24;60.34;96612.25;10358915;28;20070;-28
2023/01/11 13:45:40;;;;;;;4.22;1.85;;;;;;;17.28;60.72;96629.13;10351823;28;20202;-27
2023/01/11 13:50:49;;;;;;;3.08;1.92;;;;;;;17.28;60.52;96626.59;10362019;28;20500;-28
2023/01/11 13:55:58;;;;;;;4.68;2.10;;;;;;;17.30;60.58;96633.34;10360550;28;20065;-27
2023/01/11 14:01:15;;;;;;;3.28;1.77;;;;;;;17.28;60.75;96632.53;10365698;28;20088;-27
2023/01/11 14:06:40;;;;;;;3.72;2.08;;;;;;;17.33;60.57;96637.59;10379742;28;20036;-27
2023/01/11 14:12:13;;;;;;;2.47;1.70;;;;;;;17.35;60.32;96643.50;10367111;28;20038;-28
2023/01/11 14:17:28;;;;;;;2.10;1.38;;;;;;;17.33;60.49;96647.72;10370456;28;20150;-27
2023/01/11 14:22:59;;;;;;;3.92;1.90;;;;;;;17.34;60.58;96672.16;10363613;28;20092;-27
2023/01/11 14:28:50;;;;;;;2.03;1.83;;;;;;;17.29;60.67;96666.25;10365663;28;20076;-26
2023/01/11 14:33:53;;;;;;;3.80;2.03;;;;;;;17.29;60.44;96689.88;10362567;28;20045;-27
2023/01/11 14:39:15;;;;;;;4.53;1.65;;;;;;;17.27;60.56;96704.22;10366304;28;20469;-27
2023/01/11 14:45:00;;;;;;;5.35;3.30;;;;;;;17.29;60.37;96716.84;10355975;28;20065;-27
2023/01/11 14:50:09;;;;;;;4.93;3.22;;;;;;;17.27;60.39;96733.72;10368151;28;20042;-27
2023/01/11 14:55:34;;;;;;;5.25;2.30;;;;;;;17.26;60.21;96749.72;10359169;28;20030;-27
2023/01/11 15:00:34;;;;;;;4.45;2.05;;;;;;;17.23;60.60;96762.38;10347884;28;20480;-27
2023/01/11 15:05:37;;;;;;;2.95;1.95;;;;;;;17.21;60.61;96762.34;10361921;28;20092;-27
2023/01/11 15:10:50;;;;;;;3.33;1.90;;;;;;;17.20;61.07;96772.47;10366225;28;20042;-27
2023/01/11 15:21:21;;;;;;;4.60;2.00;;;;;;;17.23;60.45;96797.78;10364869;28;20117;-27
2023/01/11 15:26:25;;;;;;;3.85;2.03;;;;;;;17.21;60.73;96809.56;10363854;28;20033;-27
2023/01/11 15:32:02;;;;;;;2.78;1.70;;;;;;;17.23;61.05;96818.03;10365879;28;20030;-26
2023/01/11 15:37:02;;;;;;;3.37;2.17;;;;;;;17.21;61.40;96819.69;10393914;28;20045;-27
2023/01/11 15:42:15;;;;;;;2.92;1.92;;;;;;;17.19;61.08;96826.44;10376890;28;20038;-27
2023/01/11 15:47:40;;;;;;;2.95;2.00;;;;;;;17.18;61.17;96834.84;10374498;28;20033;-27
2023/01/11 15:53:19;;;;;;;6.53;2.10;;;;;;;17.19;60.96;96837.41;10365609;28;20405;-27
2023/01/11 15:58:38;;;;;;;4.65;1.60;;;;;;;17.21;60.65;96837.41;10378754;28;20680;-23
2023/01/11 16:03:52;;;;;;;4.32;1.52;;;;;;;17.12;60.46;96858.44;10373317;28;20029;-27
2023/01/11 16:09:01;;;;;;;1.52;1.27;;;;;;;17.16;59.54;96866.91;10376439;28;20037;-28
2023/01/11 16:14:19;;;;;;;3.50;1.73;;;;;;;17.11;59.42;96878.66;10396509;28;20033;-27
2023/01/11 16:19:22;;;;;;;3.10;1.40;;;;;;;17.13;59.64;96876.97;10359251;28;20041;-26
2023/01/11 16:24:28;;;;;;;1.98;1.60;;;;;;;17.17;59.74;96879.53;10388246;28;20044;-26
2023/01/11 16:29:31;;;;;;;2.47;1.60;;;;;;;17.23;59.55;96893.94;10386093;28;20037;-26
2023/01/11 16:34:40;;;;;;;3.08;1.23;;;;;;;17.32;59.76;96884.72;10375945;28;20673;-27
2023/01/11 16:39:40;;;;;;;2.05;1.20;;;;;;;17.37;59.64;96892.38;10375560;28;20113;-27
2023/01/11 16:44:52;;;;;;;2.73;1.70;;;;;;;17.43;59.81;96905.06;10388893;28;20485;-26
2023/01/11 16:50:18;;;;;;;2.28;1.52;;;;;;;17.50;59.17;96910.19;10379607;28;20655;-27
2023/01/11 16:55:23;;;;;;;1.88;1.13;;;;;;;17.55;59.25;96910.19;10376984;28;20061;-27
2023/01/11 17:00:27;;;;;;;5.45;1.70;;;;;;;17.55;59.03;96928.78;10391713;28;20030;-26
2023/01/11 17:05:28;;;;;;;2.35;1.58;;;;;;;17.60;59.43;96956.66;10374897;28;20076;-26
2023/01/11 17:10:29;;;;;;;4.68;2.60;;;;;;;17.65;59.63;96960.09;10391427;28;20069;-26
2023/01/11 17:15:57;;;;;;;8.85;3.10;;;;;;;17.71;60.05;96955.03;10375186;28;20034;-27
2023/01/11 17:20:57;;;;;;;6.97;3.50;;;;;;;17.68;60.41;96967.69;10369424;28;20485;-27
2023/01/11 17:25:58;;;;;;;7.13;3.40;;;;;;;17.57;60.27;96972.66;10390559;28;20092;-27
2023/01/11 17:30:59;;;;;;;5.78;3.40;;;;;;;17.53;60.66;96977.69;10386788;28;20359;-27
2023/01/11 17:36:01;;;;;;;4.50;3.53;;;;;;;17.50;60.56;96985.28;10384808;28;20030;-27
2023/01/11 17:45:11;;;;;;;5.80;3.33;;;;;;;17.47;60.48;96985.25;10386745;28;20033;-26
2023/01/11 17:46:25;;;;;;;4.75;2.88;;;;;;;17.47;60.84;96990.31;10372151;28;20030;-27
2023/01/11 17:51:32;;;;;;;18.65;5.22;;;;;;;17.57;61.67;97007.28;10373959;28;20042;-27
2023/01/11 17:56:36;;;;;;;11.57;4.10;;;;;;;17.55;61.37;97019.91;10362971;28;20068;-26
2023/01/11 18:01:37;;;;;;;9.35;4.28;;;;;;;17.62;61.36;97030.94;10377196;28;20055;-26
2023/01/11 18:06:40;;;;;;;15.32;4.38;;;;;;;17.61;61.23;97027.56;10364803;28;20048;-28
2023/01/11 18:11:41;;;;;;;5.50;3.45;;;;;;;17.62;61.05;97033.47;10370896;28;20061;-27
2023/01/11 18:17:02;;;;;;;10.43;4.05;;;;;;;17.57;60.97;97050.31;10376186;28;20037;-27
2023/01/11 18:22:04;;;;;;;3.83;3.10;;;;;;;17.47;61.13;97035.88;10375588;28;20048;-27
2023/01/11 18:27:13;;;;;;;5.03;3.08;;;;;;;17.51;60.91;97047.72;10375567;28;20033;-27
2023/01/11 18:32:14;;;;;;;5.95;2.97;;;;;;;17.50;61.21;97051.09;10386527;28;20109;-27
2023/01/11 18:37:14;;;;;;;5.93;3.20;;;;;;;17.51;60.87;97062.91;10383243;28;20041;-28
2023/01/11 18:42:17;;;;;;;5.33;2.97;;;;;;;17.49;61.25;97060.34;10366762;28;20464;-27
2023/01/11 18:47:21;;;;;;;12.45;3.45;;;;;;;17.50;61.47;97046.03;10381481;28;20303;-27
2023/01/11 18:52:26;;;;;;;7.43;3.83;;;;;;;17.47;61.86;97040.91;10393791;28;20033;-27
2023/01/11 18:57:26;;;;;;;4.60;2.53;;;;;;;17.42;60.47;97055.25;10386756;28;20033;-27
2023/01/11 19:02:31;;;;;;;5.00;3.03;;;;;;;17.49;60.09;97067.13;10372659;28;20038;-27
2023/01/11 19:07:32;;;;;;;5.20;2.30;;;;;;;17.45;60.58;97078.03;10368139;28;20455;-27
2023/01/11 19:12:32;;;;;;;4.67;2.90;;;;;;;17.43;61.00;97082.25;10380249;28;20030;-27
2023/01/11 19:17:32;;;;;;;6.07;2.53;;;;;;;17.49;60.68;97100.84;10391498;28;20295;-26
2023/01/11 19:22:33;;;;;;;5.80;3.07;;;;;;;17.46;61.79;97102.50;10385710;28;20033;-27
2023/01/11 19:27:35;;;;;;;12.63;2.95;;;;;;;17.44;62.04;97114.31;10379803;28;20030;-27
2023/01/11 19:32:36;;;;;;;4.95;2.58;;;;;;;17.50;61.22;97116.91;10377000;28;20045;-27
2023/01/11 19:37:36;;;;;;;6.37;2.33;;;;;;;17.50;60.90;97117.75;10370406;28;20045;-27
2023/01/11 19:42:39;;;;;;;4.70;2.60;;;;;;;17.49;61.01;97121.13;10387070;28;20095;-27
2023/01/11 19:47:40;;;;;;;4.50;2.50;;;;;;;17.44;60.75;97104.19;10373437;28;20033;-27
2023/01/11 19:52:40;;;;;;;4.83;2.73;;;;;;;17.44;61.34;97112.66;10382053;28;20604;-27
2023/01/11 19:57:40;;;;;;;5.20;2.77;;;;;;;17.43;61.04;97110.94;10379729;28;20293;-26
2023/01/11 20:02:41;;;;;;;7.77;2.80;;;;;;;17.40;61.34;97112.59;10375918;28;20112;-27
2023/01/11 20:07:41;;;;;;;7.95;2.83;;;;;;;17.42;61.13;97126.09;10381685;28;20030;-27
2023/01/11 20:12:42;;;;;;;7.40;2.80;;;;;;;17.29;61.17;97119.16;10364430;28;20034;-27
2023/01/11 20:17:42;;;;;;;5.80;3.77;;;;;;;17.35;61.24;97131.91;10378169;28;20727;-27
2023/01/11 20:22:43;;;;;;;4.93;2.73;;;;;;;17.34;61.35;97141.16;10378400;28;20037;-28
2023/01/11 20:27:43;;;;;;;5.45;2.28;;;;;;;17.37;61.77;97146.31;10371737;28;20280;-27
2023/01/11 20:32:44;;;;;;;4.73;2.43;;;;;;;17.39;61.58;97142.09;10375970;28;20783;-26
2023/01/11 20:37:44;;;;;;;4.63;2.57;;;;;;;17.40;61.21;97140.44;10365697;28;20036;-27
2023/01/11 20:42:45;;;;;;;7.15;2.20;;;;;;;17.39;61.30;97151.38;10356666;28;20052;-28
2023/01/11 20:47:45;;;;;;;3.63;2.33;;;;;;;17.34;61.54;97155.50;10366390;28;20114;-28
2023/01/11 20:52:47;;;;;;;6.47;2.57;;;;;;;17.32;61.91;97162.25;10385353;28;20030;-28
2023/01/11 20:57:50;;;;;;;5.30;2.67;;;;;;;17.32;61.04;97173.19;10333498;28;20584;-28
2023/01/11 21:02:50;;;;;;;3.38;2.05;;;;;;;17.31;61.61;97155.50;10324073;28;20468;-26
2023/01/11 21:07:52;;;;;;;6.30;2.60;;;;;;;17.28;62.28;97173.16;10326407;28;20099;-30
2023/01/11 21:12:55;;;;;;;4.50;2.20;;;;;;;17.27;62.21;97156.28;10330050;28;20407;-27
2023/01/11 21:17:55;;;;;;;2.90;2.20;;;;;;;17.32;62.05;97162.25;10360798;28;20417;-26
2023/01/11 21:22:56;;;;;;;4.30;2.60;;;;;;;17.32;62.03;97167.31;10381649;28;20040;-27
2023/01/11 21:27:58;;;;;;;4.57;2.63;;;;;;;17.29;62.04;97172.31;10383213;28;20050;-27
2023/01/11 21:32:58;;;;;;;5.10;2.45;;;;;;;17.26;62.11;97175.66;10379890;28;20043;-27
2023/01/11 21:37:59;;;;;;;5.63;2.40;;;;;;;17.32;62.13;97183.31;10382818;28;20046;-27
2023/01/11 21:42:59;;;;;;;5.93;2.72;;;;;;;17.32;62.37;97167.31;10366108;28;20293;-28
2023/01/11 21:47:59;;;;;;;5.63;2.67;;;;;;;17.32;62.14;97159.72;10377100;28;20088;-28
2023/01/11 21:53:00;;;;;;;4.77;2.40;;;;;;;17.29;62.67;97174.84;10383371;28;20052;-28
2023/01/11 21:58:00;;;;;;;4.33;2.27;;;;;;;17.26;62.51;97167.22;10363803;28;20872;-27
2023/01/11 22:03:01;;;;;;;5.07;2.83;;;;;;;17.25;62.51;97163.00;10386041;28;20293;-27
2023/01/11 22:08:01;;;;;;;4.00;2.10;;;;;;;17.24;62.26;97156.25;10383738;28;20033;-27
2023/01/11 22:13:01;;;;;;;5.80;2.63;;;;;;;17.22;62.35;97141.03;10380078;28;20413;-28
2023/01/11 22:18:02;;;;;;;3.33;2.67;;;;;;;17.23;62.25;97146.97;10372640;28;20034;-28
2023/01/11 22:23:02;;;;;;;3.60;1.90;;;;;;;17.21;62.71;97158.72;10388847;28;20060;-27
2023/01/11 22:28:03;;;;;;;3.93;2.10;;;;;;;17.20;62.77;97157.03;10375432;28;20292;-28
2023/01/11 22:33:03;;;;;;;4.32;2.72;;;;;;;17.20;62.44;97151.97;10379769;28;20108;-27
2023/01/11 22:38:04;;;;;;;3.20;1.93;;;;;;;17.16;62.54;97155.31;10389487;28;20042;-28
2023/01/11 22:43:05;;;;;;;4.45;2.25;;;;;;;17.19;62.74;97170.50;10383699;28;20309;-28
2023/01/11 22:48:06;;;;;;;4.87;2.20;;;;;;;17.16;62.82;97178.91;10387664;28;20426;-27
2023/01/11 22:53:06;;;;;;;5.07;2.13;;;;;;;17.23;62.97;97174.78;10379629;28;20034;-27
2023/01/11 22:58:06;;;;;;;7.10;2.40;;;;;;;17.24;62.58;97189.13;10375792;28;20045;-27
2023/01/11 23:03:07;;;;;;;3.97;2.03;;;;;;;17.23;62.49;97172.25;10384695;28;20042;-26
2023/01/11 23:08:09;;;;;;;5.93;2.27;;;;;;;17.19;62.58;97163.78;10382959;28;20034;-27
2023/01/11 23:18:30;;;;;;;3.45;2.40;;;;;;;17.19;62.49;97145.22;10377088;28;20707;-27
2023/01/11 23:23:31;;;;;;;4.13;2.13;;;;;;;17.21;62.82;97166.31;10388056;28;20030;-27
2023/01/11 23:28:32;;;;;;;3.50;1.97;;;;;;;17.16;63.03;97162.91;10374179;28;20057;-27
2023/01/11 23:33:33;;;;;;;4.15;2.13;;;;;;;17.17;62.84;97149.41;10377000;28;20776;-27
2023/01/11 23:38:33;;;;;;;2.53;1.98;;;;;;;17.16;62.45;97157.84;10374310;28;20025;-26
2023/01/11 23:43:39;;;;;;;2.60;1.90;;;;;;;17.14;62.51;97151.91;10396517;28;20045;-28
2023/01/11 23:48:40;;;;;;;3.10;1.92;;;;;;;17.16;62.66;97150.25;10383179;28;20029;-27
2023/01/11 23:53:40;;;;;;;4.20;1.90;;;;;;;17.17;62.54;97160.38;10372551;28;20463;-27
2023/01/11 23:58:41;;;;;;;2.97;1.90;;;;;;;17.15;62.71;97151.09;10376250;28;20688;-27
